createdAt,value
2023-02-03T00:00:05.992Z,23.96
2023-02-03T00:00:36.017Z,23.95
2023-02-03T00:01:06.027Z,23.95
2023-02-03T00:01:36.126Z,23.96
2023-02-03T00:02:06.212Z,23.98
2023-02-03T00:02:36.235Z,23.98
2023-02-03T00:03:06.446Z,23.96
2023-02-03T00:04:15.402Z,23.94
2023-02-03T00:04:45.457Z,23.95
2023-02-03T00:05:15.485Z,23.94
2023-02-03T00:05:45.517Z,23.94
2023-02-03T00:06:15.553Z,23.94
2023-02-03T00:06:45.598Z,23.96
2023-02-03T00:07:15.643Z,23.92
2023-02-03T00:07:45.676Z,23.95
2023-02-03T00:08:15.716Z,23.98
2023-02-03T00:08:45.748Z,23.99
2023-02-03T00:09:15.790Z,23.96
2023-02-03T00:09:45.863Z,23.95
2023-02-03T00:10:15.882Z,23.98
2023-02-03T00:10:45.927Z,23.98
2023-02-03T00:11:15.952Z,23.98
2023-02-03T00:11:46.005Z,23.95
2023-02-03T00:12:16.093Z,23.95
2023-02-03T00:12:46.111Z,23.96
2023-02-03T00:13:16.147Z,23.98
2023-02-03T00:13:46.184Z,23.96
2023-02-03T00:14:16.308Z,23.99
2023-02-03T00:14:46.278Z,24.01
2023-02-03T00:15:16.365Z,23.98
2023-02-03T00:15:46.451Z,23.99
2023-02-03T00:16:16.556Z,24.02
2023-02-03T00:16:46.587Z,23.99
2023-02-03T00:17:16.650Z,24.05
2023-02-03T00:17:46.734Z,24.04
2023-02-03T00:18:16.808Z,24.05
2023-02-03T00:18:46.884Z,24.08
2023-02-03T00:19:17.744Z,24.05
2023-02-03T00:19:47.050Z,24.06
2023-02-03T00:20:17.129Z,24.05
2023-02-03T00:20:47.209Z,24.05
2023-02-03T00:21:17.283Z,24.05
2023-02-03T00:21:47.372Z,24.08
2023-02-03T00:22:17.454Z,24.09
2023-02-03T00:22:47.531Z,24.08
2023-02-03T00:23:17.605Z,24.08
2023-02-03T00:23:47.691Z,24.04
2023-02-03T00:24:17.791Z,24.08
2023-02-03T00:24:47.891Z,24.09
2023-02-03T00:25:17.971Z,24.11
2023-02-03T00:25:48.059Z,24.12
2023-02-03T00:26:18.138Z,24.12
2023-02-03T00:26:48.219Z,24.11
2023-02-03T00:27:18.299Z,24.15
2023-02-03T00:27:48.447Z,24.12
2023-02-03T00:28:18.487Z,24.11
2023-02-03T00:28:48.455Z,24.11
2023-02-03T00:29:18.526Z,24.12
2023-02-03T00:29:48.625Z,24.15
2023-02-03T00:30:18.712Z,24.12
2023-02-03T00:30:48.785Z,24.13
2023-02-03T00:31:19.033Z,24.16
2023-02-03T00:31:48.982Z,24.16
2023-02-03T00:32:19.062Z,24.17
2023-02-03T00:32:48.959Z,24.20
2023-02-03T00:33:19.047Z,24.19
2023-02-03T00:33:49.129Z,24.22
2023-02-03T00:34:19.207Z,24.23
2023-02-03T00:34:49.309Z,24.20
2023-02-03T00:35:19.396Z,24.20
2023-02-03T00:35:49.483Z,24.24
2023-02-03T00:36:19.569Z,24.23
2023-02-03T00:36:49.686Z,24.20
2023-02-03T00:37:19.754Z,24.26
2023-02-03T00:37:49.837Z,24.23
2023-02-03T00:38:19.922Z,24.24
2023-02-03T00:38:50.014Z,24.27
2023-02-03T00:39:20.094Z,24.29
2023-02-03T00:39:50.188Z,24.29
2023-02-03T00:40:20.275Z,24.27
2023-02-03T00:40:50.365Z,24.26
2023-02-03T00:41:20.445Z,24.29
2023-02-03T00:41:50.528Z,24.26
2023-02-03T00:42:20.616Z,24.26
2023-02-03T00:42:50.735Z,24.29
2023-02-03T00:43:20.794Z,24.29
2023-02-03T00:43:50.875Z,24.29
2023-02-03T00:44:20.955Z,24.27
2023-02-03T00:44:51.069Z,24.26
2023-02-03T00:45:21.034Z,24.27
2023-02-03T00:45:51.153Z,24.30
2023-02-03T00:46:21.151Z,24.30
2023-02-03T00:46:51.222Z,24.32
2023-02-03T00:47:21.307Z,24.33
2023-02-03T00:47:51.386Z,24.32
2023-02-03T00:48:21.466Z,24.30
2023-02-03T00:48:51.556Z,24.30
2023-02-03T00:49:21.632Z,24.30
2023-02-03T00:49:51.774Z,24.30
2023-02-03T00:50:21.760Z,24.27
2023-02-03T00:50:51.840Z,24.29
2023-02-03T00:51:21.936Z,24.23
2023-02-03T00:51:52.011Z,24.23
2023-02-03T00:52:22.091Z,24.23
2023-02-03T00:52:52.176Z,24.20
2023-02-03T00:53:22.251Z,24.19
2023-02-03T00:53:52.341Z,24.22
2023-02-03T00:54:22.466Z,24.20
2023-02-03T00:54:52.535Z,24.17
2023-02-03T00:55:22.626Z,24.19
2023-02-03T00:55:52.704Z,24.17
2023-02-03T00:56:22.789Z,24.16
2023-02-03T00:56:52.874Z,24.13
2023-02-03T00:57:22.952Z,24.11
2023-02-03T00:57:53.065Z,24.12
2023-02-03T00:58:23.083Z,24.13
2023-02-03T00:58:53.157Z,24.13
2023-02-03T00:59:23.235Z,24.15
2023-02-03T00:59:53.316Z,24.11
2023-02-03T01:00:23.422Z,24.11
2023-02-03T01:00:53.507Z,24.09
2023-02-03T01:01:23.672Z,24.08
2023-02-03T01:01:53.756Z,24.04
2023-02-03T01:02:23.816Z,24.05
2023-02-03T01:02:53.799Z,24.06
2023-02-03T01:03:23.893Z,24.04
2023-02-03T01:03:53.965Z,24.04
2023-02-03T01:04:24.000Z,24.01
2023-02-03T01:04:54.030Z,24.02
2023-02-03T01:05:24.070Z,24.01
2023-02-03T01:05:54.105Z,24.01
2023-02-03T01:06:24.162Z,23.96
2023-02-03T01:06:54.179Z,23.94
2023-02-03T01:07:24.241Z,23.95
2023-02-03T01:07:54.257Z,23.95
2023-02-03T01:08:24.310Z,23.94
2023-02-03T01:08:54.337Z,23.92
2023-02-03T01:09:24.389Z,23.91
2023-02-03T01:09:54.432Z,23.89
2023-02-03T01:10:24.878Z,23.88
2023-02-03T01:10:54.574Z,23.87
2023-02-03T01:11:24.610Z,23.87
2023-02-03T01:11:54.700Z,23.89
2023-02-03T01:12:24.714Z,23.91
2023-02-03T01:12:54.829Z,23.89
2023-02-03T01:13:24.832Z,23.88
2023-02-03T01:13:54.888Z,23.88
2023-02-03T01:14:24.974Z,23.91
2023-02-03T01:14:55.078Z,23.88
2023-02-03T01:15:25.156Z,23.88
2023-02-03T01:15:55.237Z,23.89
2023-02-03T01:16:27.636Z,23.87
2023-02-03T01:16:55.396Z,23.85
2023-02-03T01:17:25.455Z,23.85
2023-02-03T01:17:55.548Z,23.84
2023-02-03T01:18:25.631Z,23.83
2023-02-03T01:18:55.710Z,23.87
2023-02-03T01:19:25.800Z,23.84
2023-02-03T01:19:55.887Z,23.84
2023-02-03T01:20:26.458Z,23.81
2023-02-03T01:20:56.065Z,23.83
2023-02-03T01:21:26.146Z,23.88
2023-02-03T01:21:56.233Z,23.88
2023-02-03T01:22:26.310Z,23.85
2023-02-03T01:22:56.429Z,23.84
2023-02-03T01:23:26.505Z,23.89
2023-02-03T01:23:56.573Z,23.89
2023-02-03T01:24:26.649Z,23.87
2023-02-03T01:24:56.740Z,23.87
2023-02-03T01:25:26.831Z,23.92
2023-02-03T01:25:56.905Z,23.91
2023-02-03T01:26:26.980Z,23.91
2023-02-03T01:26:57.064Z,23.92
2023-02-03T01:27:27.157Z,23.91
2023-02-03T01:27:57.304Z,23.89
2023-02-03T01:28:27.300Z,23.92
2023-02-03T01:28:57.360Z,23.92
2023-02-03T01:29:27.447Z,23.94
2023-02-03T01:29:57.544Z,23.92
2023-02-03T01:30:27.997Z,23.92
2023-02-03T01:30:57.812Z,23.94
2023-02-03T01:31:27.783Z,23.91
2023-02-03T01:31:57.796Z,23.94
2023-02-03T01:32:27.713Z,23.92
2023-02-03T01:32:57.768Z,23.89
2023-02-03T01:33:27.847Z,23.92
2023-02-03T01:33:57.936Z,23.92
2023-02-03T01:34:28.019Z,23.91
2023-02-03T01:34:58.123Z,23.91
2023-02-03T01:35:28.176Z,23.89
2023-02-03T01:35:58.256Z,23.94
2023-02-03T01:36:28.353Z,23.94
2023-02-03T01:36:58.428Z,23.91
2023-02-03T01:37:28.508Z,23.94
2023-02-03T01:37:58.581Z,23.89
2023-02-03T01:38:28.670Z,23.95
2023-02-03T01:38:58.765Z,23.95
2023-02-03T01:39:28.842Z,23.95
2023-02-03T01:39:58.926Z,23.91
2023-02-03T01:40:29.286Z,23.92
2023-02-03T01:40:59.053Z,23.95
2023-02-03T01:41:29.152Z,23.94
2023-02-03T01:41:59.217Z,23.95
2023-02-03T01:42:29.301Z,23.92
2023-02-03T01:42:59.394Z,23.94
2023-02-03T01:43:29.492Z,23.94
2023-02-03T01:43:59.563Z,23.95
2023-02-03T01:44:29.628Z,23.95
2023-02-03T01:44:59.712Z,23.95
2023-02-03T01:45:29.802Z,23.92
2023-02-03T01:45:59.909Z,23.94
2023-02-03T01:46:30.031Z,23.92
2023-02-03T01:46:59.982Z,23.95
2023-02-03T01:47:30.062Z,23.94
2023-02-03T01:48:00.159Z,23.95
2023-02-03T01:48:30.237Z,23.96
2023-02-03T01:49:00.316Z,23.98
2023-02-03T01:49:30.400Z,23.98
2023-02-03T01:50:00.472Z,23.99
2023-02-03T01:50:30.560Z,23.98
2023-02-03T01:51:00.645Z,23.96
2023-02-03T01:51:30.721Z,24.01
2023-02-03T01:52:00.807Z,23.98
2023-02-03T01:52:30.885Z,24.01
2023-02-03T01:53:00.980Z,23.99
2023-02-03T01:53:31.053Z,23.99
2023-02-03T01:54:01.151Z,23.99
2023-02-03T01:54:31.229Z,23.99
2023-02-03T01:55:01.315Z,23.99
2023-02-03T01:55:31.401Z,24.02
2023-02-03T01:56:01.481Z,24.04
2023-02-03T01:56:31.551Z,24.08
2023-02-03T01:57:01.639Z,24.06
2023-02-03T01:57:31.717Z,24.06
2023-02-03T01:58:01.799Z,24.05
2023-02-03T01:58:31.901Z,24.08
2023-02-03T01:59:01.858Z,24.06
2023-02-03T01:59:31.951Z,24.06
2023-02-03T02:00:02.062Z,24.08
2023-02-03T02:00:32.124Z,24.06
2023-02-03T02:01:02.252Z,24.08
2023-02-03T02:01:32.274Z,24.06
2023-02-03T02:02:02.338Z,24.11
2023-02-03T02:02:32.459Z,24.11
2023-02-03T02:03:02.442Z,24.11
2023-02-03T02:03:32.521Z,24.11
2023-02-03T02:04:02.582Z,24.15
2023-02-03T02:04:32.613Z,24.11
2023-02-03T02:05:02.653Z,24.13
2023-02-03T02:05:32.715Z,24.15
2023-02-03T02:06:02.759Z,24.16
2023-02-03T02:06:32.797Z,24.19
2023-02-03T02:07:02.831Z,24.19
2023-02-03T02:07:32.873Z,24.19
2023-02-03T02:08:02.905Z,24.19
2023-02-03T02:08:32.942Z,24.17
2023-02-03T02:09:02.989Z,24.19
2023-02-03T02:09:33.029Z,24.19
2023-02-03T02:10:03.067Z,24.19
2023-02-03T02:10:33.100Z,24.20
2023-02-03T02:11:03.144Z,24.23
2023-02-03T02:11:33.192Z,24.24
2023-02-03T02:12:03.223Z,24.23
2023-02-03T02:12:33.294Z,24.23
2023-02-03T02:13:03.298Z,24.23
2023-02-03T02:13:33.348Z,24.22
2023-02-03T02:14:03.447Z,24.22
2023-02-03T02:14:33.515Z,24.20
2023-02-03T02:15:03.618Z,24.23
2023-02-03T02:15:33.726Z,24.22
2023-02-03T02:16:03.889Z,24.22
2023-02-03T02:16:33.833Z,24.23
2023-02-03T02:17:03.911Z,24.22
2023-02-03T02:17:33.993Z,24.22
2023-02-03T02:18:04.084Z,24.23
2023-02-03T02:18:34.174Z,24.26
2023-02-03T02:19:04.261Z,24.26
2023-02-03T02:19:34.358Z,24.26
2023-02-03T02:20:04.446Z,24.24
2023-02-03T02:20:34.541Z,24.24
2023-02-03T02:21:04.621Z,24.20
2023-02-03T02:21:34.702Z,24.23
2023-02-03T02:22:04.777Z,24.22
2023-02-03T02:22:34.851Z,24.24
2023-02-03T02:23:04.943Z,24.24
2023-02-03T02:23:35.035Z,24.23
2023-02-03T02:24:05.113Z,24.23
2023-02-03T02:24:35.191Z,24.24
2023-02-03T02:25:05.293Z,24.23
2023-02-03T02:25:35.379Z,24.20
2023-02-03T02:26:05.460Z,24.22
2023-02-03T02:26:35.539Z,24.20
2023-02-03T02:27:05.622Z,24.19
2023-02-03T02:27:35.793Z,24.17
2023-02-03T02:28:05.774Z,24.15
2023-02-03T02:28:35.851Z,24.12
2023-02-03T02:29:05.944Z,24.16
2023-02-03T02:29:36.001Z,24.08
2023-02-03T02:30:06.099Z,24.09
2023-02-03T02:30:36.215Z,24.08
2023-02-03T02:31:06.356Z,24.08
2023-02-03T02:31:36.418Z,24.05
2023-02-03T02:32:06.248Z,24.01
2023-02-03T02:32:36.287Z,23.99
2023-02-03T02:33:06.376Z,23.99
2023-02-03T02:33:36.459Z,23.99
2023-02-03T02:34:06.551Z,23.99
2023-02-03T02:34:36.639Z,23.96
2023-02-03T02:35:06.746Z,23.95
2023-02-03T02:35:36.813Z,23.94
2023-02-03T02:36:06.893Z,23.98
2023-02-03T02:36:36.975Z,23.94
2023-02-03T02:37:07.067Z,23.92
2023-02-03T02:37:37.159Z,23.94
2023-02-03T02:38:07.230Z,23.89
2023-02-03T02:38:37.308Z,23.89
2023-02-03T02:39:07.396Z,23.88
2023-02-03T02:39:37.479Z,23.92
2023-02-03T02:40:07.579Z,23.88
2023-02-03T02:40:37.671Z,23.89
2023-02-03T02:41:07.743Z,23.89
2023-02-03T02:41:37.822Z,23.87
2023-02-03T02:42:07.915Z,23.87
2023-02-03T02:42:38.002Z,23.89
2023-02-03T02:43:08.073Z,23.89
2023-02-03T02:43:38.150Z,23.88
2023-02-03T02:44:08.237Z,23.89
2023-02-03T02:44:38.352Z,23.88
2023-02-03T02:45:08.417Z,23.87
2023-02-03T02:45:38.486Z,23.89
2023-02-03T02:46:08.603Z,23.84
2023-02-03T02:46:38.746Z,23.87
2023-02-03T02:47:08.680Z,23.87
2023-02-03T02:47:38.770Z,23.87
2023-02-03T02:48:08.913Z,23.85
2023-02-03T02:48:38.852Z,23.87
2023-02-03T02:49:08.924Z,23.87
2023-02-03T02:49:39.020Z,23.84
2023-02-03T02:50:09.105Z,23.87
2023-02-03T02:50:39.180Z,23.88
2023-02-03T02:51:09.275Z,23.88
2023-02-03T02:51:39.348Z,23.87
2023-02-03T02:52:09.457Z,23.89
2023-02-03T02:52:39.529Z,23.89
2023-02-03T02:53:09.607Z,23.88
2023-02-03T02:53:39.681Z,23.87
2023-02-03T02:54:09.761Z,23.87
2023-02-03T02:54:39.837Z,23.84
2023-02-03T02:55:09.931Z,23.84
2023-02-03T02:55:40.029Z,23.84
2023-02-03T02:56:11.612Z,23.87
2023-02-03T02:56:40.171Z,23.85
2023-02-03T02:57:10.250Z,23.88
2023-02-03T02:57:40.330Z,23.85
2023-02-03T02:58:10.416Z,23.88
2023-02-03T02:58:40.505Z,23.85
2023-02-03T02:59:10.597Z,23.85
2023-02-03T02:59:40.700Z,23.85
2023-02-03T03:00:10.767Z,23.84
2023-02-03T03:00:40.853Z,23.84
2023-02-03T03:01:10.972Z,23.81
2023-02-03T03:01:41.131Z,23.85
2023-02-03T03:02:11.123Z,23.87
2023-02-03T03:02:41.204Z,23.87
2023-02-03T03:03:11.295Z,23.89
2023-02-03T03:03:41.375Z,23.91
2023-02-03T03:04:11.412Z,23.89
2023-02-03T03:04:41.528Z,23.88
2023-02-03T03:05:11.662Z,23.88
2023-02-03T03:05:41.623Z,23.91
2023-02-03T03:06:11.669Z,23.88
2023-02-03T03:06:41.710Z,23.88
2023-02-03T03:07:11.751Z,23.91
2023-02-03T03:07:41.785Z,23.87
2023-02-03T03:08:11.824Z,23.85
2023-02-03T03:08:41.864Z,23.87
2023-02-03T03:09:11.944Z,23.85
2023-02-03T03:09:41.971Z,23.87
2023-02-03T03:10:12.008Z,23.85
2023-02-03T03:10:42.068Z,23.84
2023-02-03T03:11:12.110Z,23.88
2023-02-03T03:11:42.145Z,23.87
2023-02-03T03:12:12.193Z,23.87
2023-02-03T03:12:42.211Z,23.88
2023-02-03T03:13:12.257Z,23.89
2023-02-03T03:13:42.295Z,23.91
2023-02-03T03:14:12.379Z,23.89
2023-02-03T03:14:42.463Z,23.88
2023-02-03T03:15:12.590Z,23.89
2023-02-03T03:15:42.620Z,23.89
2023-02-03T03:16:12.651Z,23.87
2023-02-03T03:16:42.646Z,23.89
2023-02-03T03:17:12.735Z,23.88
2023-02-03T03:17:42.809Z,23.94
2023-02-03T03:18:12.896Z,23.92
2023-02-03T03:18:42.977Z,23.92
2023-02-03T03:19:13.058Z,23.94
2023-02-03T03:19:43.158Z,23.91
2023-02-03T03:20:13.242Z,23.95
2023-02-03T03:20:43.332Z,23.92
2023-02-03T03:21:13.412Z,23.94
2023-02-03T03:21:43.497Z,23.92
2023-02-03T03:22:13.577Z,23.92
2023-02-03T03:22:43.661Z,23.92
2023-02-03T03:23:13.747Z,23.92
2023-02-03T03:23:43.826Z,23.94
2023-02-03T03:24:13.909Z,23.95
2023-02-03T03:24:43.996Z,23.99
2023-02-03T03:25:14.079Z,23.98
2023-02-03T03:25:44.172Z,24.02
2023-02-03T03:26:14.253Z,23.99
2023-02-03T03:26:44.335Z,23.99
2023-02-03T03:27:14.414Z,24.02
2023-02-03T03:27:44.547Z,24.01
2023-02-03T03:28:14.712Z,24.02
2023-02-03T03:28:44.627Z,24.05
2023-02-03T03:29:14.708Z,24.04
2023-02-03T03:29:44.783Z,24.04
2023-02-03T03:30:14.918Z,24.05
2023-02-03T03:30:44.938Z,24.04
2023-02-03T03:31:15.013Z,24.06
2023-02-03T03:31:45.043Z,24.05
2023-02-03T03:32:14.985Z,24.04
2023-02-03T03:32:45.066Z,24.05
2023-02-03T03:33:15.156Z,24.05
2023-02-03T03:33:45.151Z,24.05
2023-02-03T03:34:15.234Z,24.08
2023-02-03T03:34:45.312Z,24.04
2023-02-03T03:35:15.454Z,24.05
2023-02-03T03:35:45.414Z,24.06
2023-02-03T03:36:15.492Z,24.06
2023-02-03T03:36:45.579Z,24.06
2023-02-03T03:37:15.671Z,24.08
2023-02-03T03:37:45.736Z,24.09
2023-02-03T03:38:15.823Z,24.09
2023-02-03T03:38:45.902Z,24.12
2023-02-03T03:39:15.989Z,24.13
2023-02-03T03:39:46.072Z,24.16
2023-02-03T03:40:16.153Z,24.15
2023-02-03T03:40:46.230Z,24.16
2023-02-03T03:41:16.320Z,24.13
2023-02-03T03:41:46.408Z,24.12
2023-02-03T03:42:16.483Z,24.16
2023-02-03T03:42:46.568Z,24.13
2023-02-03T03:43:16.653Z,24.17
2023-02-03T03:43:46.738Z,24.17
2023-02-03T03:44:16.830Z,24.20
2023-02-03T03:44:46.918Z,24.17
2023-02-03T03:45:17.031Z,24.19
2023-02-03T03:45:47.083Z,24.19
2023-02-03T03:46:17.183Z,24.20
2023-02-03T03:46:47.331Z,24.17
2023-02-03T03:47:17.195Z,24.19
2023-02-03T03:47:47.279Z,24.16
2023-02-03T03:48:17.363Z,24.19
2023-02-03T03:48:47.437Z,24.19
2023-02-03T03:49:17.527Z,24.22
2023-02-03T03:49:47.616Z,24.22
2023-02-03T03:50:17.701Z,24.19
2023-02-03T03:50:47.793Z,24.22
2023-02-03T03:51:17.871Z,24.24
2023-02-03T03:51:47.977Z,24.26
2023-02-03T03:52:18.119Z,24.22
2023-02-03T03:52:48.092Z,24.22
2023-02-03T03:53:18.155Z,24.22
2023-02-03T03:53:48.245Z,24.27
2023-02-03T03:54:18.341Z,24.27
2023-02-03T03:54:48.440Z,24.29
2023-02-03T03:55:18.533Z,24.27
2023-02-03T03:55:48.598Z,24.27
2023-02-03T03:56:18.675Z,24.24
2023-02-03T03:56:48.802Z,24.26
2023-02-03T03:57:18.873Z,24.26
2023-02-03T03:57:48.970Z,24.24
2023-02-03T03:58:19.038Z,24.24
2023-02-03T03:58:49.135Z,24.22
2023-02-03T03:59:19.226Z,24.22
2023-02-03T03:59:49.295Z,24.20
2023-02-03T04:00:19.426Z,24.20
2023-02-03T04:00:49.476Z,24.19
2023-02-03T04:01:19.629Z,24.15
2023-02-03T04:01:49.808Z,24.16
2023-02-03T04:02:19.785Z,24.15
2023-02-03T04:02:49.848Z,24.16
2023-02-03T04:03:19.766Z,24.09
2023-02-03T04:03:49.838Z,24.13
2023-02-03T04:04:19.875Z,24.15
2023-02-03T04:04:49.919Z,24.12
2023-02-03T04:05:19.972Z,24.13
2023-02-03T04:05:49.996Z,24.12
2023-02-03T04:06:20.055Z,24.11
2023-02-03T04:06:50.072Z,24.12
2023-02-03T04:07:20.125Z,24.12
2023-02-03T04:07:50.148Z,24.11
2023-02-03T04:08:20.198Z,24.06
2023-02-03T04:08:50.251Z,24.04
2023-02-03T04:09:20.270Z,24.01
2023-02-03T04:09:50.387Z,24.04
2023-02-03T04:10:20.421Z,24.02
2023-02-03T04:10:50.441Z,23.98
2023-02-03T04:11:20.490Z,23.96
2023-02-03T04:11:50.534Z,23.96
2023-02-03T04:12:20.583Z,23.95
2023-02-03T04:12:50.628Z,23.96
2023-02-03T04:13:20.690Z,23.94
2023-02-03T04:13:50.725Z,23.95
2023-02-03T04:14:20.814Z,23.94
2023-02-03T04:14:50.899Z,23.89
2023-02-03T04:15:20.989Z,23.92
2023-02-03T04:15:51.140Z,23.92
2023-02-03T04:16:21.174Z,23.89
2023-02-03T04:16:51.172Z,23.91
2023-02-03T04:17:21.266Z,23.87
2023-02-03T04:17:51.367Z,23.89
2023-02-03T04:18:21.452Z,23.88
2023-02-03T04:18:51.565Z,23.85
2023-02-03T04:19:21.647Z,23.84
2023-02-03T04:19:51.747Z,23.87
2023-02-03T04:20:21.833Z,23.84
2023-02-03T04:20:51.932Z,23.81
2023-02-03T04:21:22.009Z,23.83
2023-02-03T04:21:52.079Z,23.81
2023-02-03T04:22:22.176Z,23.81
2023-02-03T04:22:52.269Z,23.83
2023-02-03T04:23:22.368Z,23.87
2023-02-03T04:23:52.422Z,23.85
2023-02-03T04:24:22.504Z,23.84
2023-02-03T04:24:52.588Z,23.85
2023-02-03T04:25:22.664Z,23.83
2023-02-03T04:25:52.745Z,23.83
2023-02-03T04:26:22.828Z,23.83
2023-02-03T04:26:52.956Z,23.85
2023-02-03T04:27:22.927Z,23.83
2023-02-03T04:27:53.162Z,23.83
2023-02-03T04:28:23.019Z,23.85
2023-02-03T04:28:53.101Z,23.84
2023-02-03T04:29:23.191Z,23.85
2023-02-03T04:29:53.285Z,23.85
2023-02-03T04:30:23.363Z,23.85
2023-02-03T04:30:53.511Z,23.85
2023-02-03T04:31:23.698Z,23.87
2023-02-03T04:31:53.589Z,23.87
2023-02-03T04:32:23.574Z,23.85
2023-02-03T04:32:53.646Z,23.88
2023-02-03T04:33:23.741Z,23.85
2023-02-03T04:33:53.823Z,23.88
2023-02-03T04:34:23.908Z,23.88
2023-02-03T04:34:53.980Z,23.85
2023-02-03T04:35:24.070Z,23.91
2023-02-03T04:35:54.182Z,23.89
2023-02-03T04:36:24.178Z,23.88
2023-02-03T04:36:54.276Z,23.89
2023-02-03T04:37:24.331Z,23.87
2023-02-03T04:37:54.424Z,23.88
2023-02-03T04:38:24.511Z,23.89
2023-02-03T04:38:54.595Z,23.89
2023-02-03T04:39:24.674Z,23.88
2023-02-03T04:39:54.758Z,23.91
2023-02-03T04:40:25.190Z,23.88
2023-02-03T04:40:54.860Z,23.88
2023-02-03T04:41:24.937Z,23.91
2023-02-03T04:41:55.026Z,23.87
2023-02-03T04:42:25.109Z,23.87
2023-02-03T04:42:55.200Z,23.88
2023-02-03T04:43:25.274Z,23.87
2023-02-03T04:43:55.355Z,23.87
2023-02-03T04:44:25.442Z,23.85
2023-02-03T04:44:55.524Z,23.88
2023-02-03T04:45:25.646Z,23.85
2023-02-03T04:45:55.692Z,23.84
2023-02-03T04:46:25.645Z,23.83
2023-02-03T04:46:55.731Z,23.81
2023-02-03T04:47:25.835Z,23.81
2023-02-03T04:47:55.917Z,23.84
2023-02-03T04:48:26.003Z,23.81
2023-02-03T04:48:56.103Z,23.84
2023-02-03T04:49:26.179Z,23.84
2023-02-03T04:49:56.261Z,23.84
2023-02-03T04:50:26.689Z,23.87
2023-02-03T04:50:56.424Z,23.85
2023-02-03T04:51:26.525Z,23.88
2023-02-03T04:51:56.602Z,23.85
2023-02-03T04:52:26.691Z,23.89
2023-02-03T04:52:56.772Z,23.88
2023-02-03T04:53:26.867Z,23.89
2023-02-03T04:53:56.940Z,23.85
2023-02-03T04:54:27.037Z,23.88
2023-02-03T04:54:57.129Z,23.88
2023-02-03T04:55:27.197Z,23.88
2023-02-03T04:55:57.281Z,23.89
2023-02-03T04:56:27.375Z,23.89
2023-02-03T04:56:57.443Z,23.88
2023-02-03T04:57:27.540Z,23.91
2023-02-03T04:57:57.625Z,23.88
2023-02-03T04:58:27.705Z,23.87
2023-02-03T04:58:57.787Z,23.88
2023-02-03T04:59:27.875Z,23.88
2023-02-03T04:59:57.967Z,23.88
2023-02-03T05:00:28.498Z,23.85
2023-02-03T05:00:58.198Z,23.85
2023-02-03T05:01:28.372Z,23.85
2023-02-03T05:01:58.324Z,23.84
2023-02-03T05:02:28.402Z,23.83
2023-02-03T05:02:58.601Z,23.85
2023-02-03T05:03:28.642Z,23.84
2023-02-03T05:03:58.576Z,23.85
2023-02-03T05:04:28.626Z,23.87
2023-02-03T05:04:58.671Z,23.87
2023-02-03T05:05:28.718Z,23.88
2023-02-03T05:05:58.746Z,23.87
2023-02-03T05:06:28.782Z,23.88
2023-02-03T05:06:58.838Z,23.87
2023-02-03T05:07:28.948Z,23.85
2023-02-03T05:07:58.963Z,23.84
2023-02-03T05:08:28.993Z,23.85
2023-02-03T05:08:59.047Z,23.89
2023-02-03T05:09:29.170Z,23.99
2023-02-03T05:09:59.116Z,23.98
2023-02-03T05:10:29.587Z,24.01
2023-02-03T05:11:01.901Z,24.02
2023-02-03T05:11:29.254Z,24.06
2023-02-03T05:11:59.312Z,24.08
2023-02-03T05:12:29.336Z,24.06
2023-02-03T05:12:59.384Z,24.01
2023-02-03T05:13:29.468Z,23.96
2023-02-03T05:13:59.538Z,23.95
2023-02-03T05:14:29.620Z,23.94
2023-02-03T05:14:59.703Z,23.94
2023-02-03T05:15:29.800Z,23.91
2023-02-03T05:15:59.874Z,23.89
2023-02-03T05:16:30.018Z,23.87
2023-02-03T05:17:00.053Z,23.87
2023-02-03T05:17:30.112Z,23.80
2023-02-03T05:18:00.205Z,23.81
2023-02-03T05:18:30.297Z,23.81
2023-02-03T05:19:00.372Z,23.78
2023-02-03T05:19:30.451Z,23.74
2023-02-03T05:20:00.580Z,23.70
2023-02-03T05:20:30.530Z,23.70
2023-02-03T05:21:00.631Z,23.68
2023-02-03T05:21:30.702Z,23.67
2023-02-03T05:22:00.827Z,23.65
2023-02-03T05:22:30.777Z,23.67
2023-02-03T05:23:00.860Z,23.64
2023-02-03T05:23:30.944Z,23.61
2023-02-03T05:24:01.018Z,23.61
2023-02-03T05:24:31.106Z,23.58
2023-02-03T05:25:01.205Z,23.57
2023-02-03T05:25:31.338Z,23.56
2023-02-03T05:26:01.383Z,23.54
2023-02-03T05:26:31.472Z,23.51
2023-02-03T05:27:01.603Z,23.51
2023-02-03T05:27:31.538Z,23.49
2023-02-03T05:28:01.734Z,23.50
2023-02-03T05:28:31.687Z,23.51
2023-02-03T05:29:01.764Z,23.51
2023-02-03T05:29:31.847Z,23.47
2023-02-03T05:30:01.953Z,23.53
2023-02-03T05:30:32.072Z,23.53
2023-02-03T05:31:02.114Z,23.44
2023-02-03T05:31:32.179Z,23.40
2023-02-03T05:32:02.366Z,23.36
2023-02-03T05:32:32.156Z,23.42
2023-02-03T05:33:02.274Z,23.39
2023-02-03T05:33:32.233Z,23.43
2023-02-03T05:34:02.316Z,23.42
2023-02-03T05:34:32.399Z,23.42
2023-02-03T05:35:02.517Z,23.40
2023-02-03T05:35:32.581Z,23.42
2023-02-03T05:36:02.668Z,23.40
2023-02-03T05:36:32.749Z,23.39
2023-02-03T05:37:02.831Z,23.39
2023-02-03T05:37:32.917Z,23.37
2023-02-03T05:38:03.012Z,23.40
2023-02-03T05:38:33.023Z,23.39
2023-02-03T05:39:03.115Z,23.42
2023-02-03T05:39:33.192Z,23.42
2023-02-03T05:40:03.279Z,23.44
2023-02-03T05:40:33.350Z,23.44
2023-02-03T05:41:03.444Z,23.43
2023-02-03T05:41:33.555Z,23.46
2023-02-03T05:42:03.617Z,23.50
2023-02-03T05:42:33.699Z,23.46
2023-02-03T05:43:03.844Z,23.44
2023-02-03T05:43:33.797Z,23.49
2023-02-03T05:44:03.872Z,23.44
2023-02-03T05:44:33.972Z,23.47
2023-02-03T05:45:04.048Z,23.47
2023-02-03T05:45:34.156Z,23.50
2023-02-03T05:46:04.366Z,23.51
2023-02-03T05:46:34.243Z,23.51
2023-02-03T05:47:04.342Z,23.54
2023-02-03T05:47:34.401Z,23.54
2023-02-03T05:48:04.522Z,23.56
2023-02-03T05:48:34.481Z,23.54
2023-02-03T05:49:04.561Z,23.57
2023-02-03T05:49:34.639Z,23.60
2023-02-03T05:50:04.731Z,23.60
2023-02-03T05:50:36.846Z,23.62
2023-02-03T05:51:04.923Z,23.62
2023-02-03T05:51:35.098Z,23.62
2023-02-03T05:52:05.054Z,23.62
2023-02-03T05:52:35.128Z,23.62
2023-02-03T05:53:05.237Z,23.67
2023-02-03T05:53:35.318Z,23.67
2023-02-03T05:54:05.409Z,23.65
2023-02-03T05:54:35.507Z,23.65
2023-02-03T05:55:05.593Z,23.70
2023-02-03T05:55:35.672Z,23.68
2023-02-03T05:56:05.753Z,23.68
2023-02-03T05:56:35.844Z,23.71
2023-02-03T05:57:05.937Z,23.73
2023-02-03T05:57:35.918Z,23.74
2023-02-03T05:58:06.031Z,23.76
2023-02-03T05:58:36.100Z,23.76
2023-02-03T05:59:06.184Z,23.78
2023-02-03T05:59:36.270Z,23.78
2023-02-03T06:00:06.357Z,23.80
2023-02-03T06:00:36.439Z,23.81
2023-02-03T06:01:06.534Z,23.83
2023-02-03T06:01:36.622Z,23.83
2023-02-03T06:02:06.741Z,23.83
2023-02-03T06:02:36.793Z,23.84
2023-02-03T06:03:07.026Z,23.87
2023-02-03T06:03:36.927Z,23.87
2023-02-03T06:04:07.169Z,23.89
2023-02-03T06:04:37.038Z,23.91
2023-02-03T06:05:07.075Z,23.87
2023-02-03T06:05:37.115Z,23.91
2023-02-03T06:06:07.166Z,23.92
2023-02-03T06:06:37.217Z,23.94
2023-02-03T06:07:07.245Z,23.94
2023-02-03T06:07:37.291Z,23.92
2023-02-03T06:08:07.352Z,23.95
2023-02-03T06:08:37.386Z,23.95
2023-02-03T06:09:07.444Z,23.92
2023-02-03T06:09:37.469Z,23.95
2023-02-03T06:10:07.511Z,23.94
2023-02-03T06:10:37.553Z,23.98
2023-02-03T06:11:07.602Z,24.01
2023-02-03T06:11:37.654Z,23.99
2023-02-03T06:12:07.669Z,24.01
2023-02-03T06:12:37.708Z,24.01
2023-02-03T06:13:07.791Z,24.01
2023-02-03T06:13:37.842Z,24.01
2023-02-03T06:14:07.925Z,24.02
2023-02-03T06:14:37.992Z,24.04
2023-02-03T06:15:08.088Z,24.02
2023-02-03T06:15:38.163Z,24.04
2023-02-03T06:16:08.249Z,24.05
2023-02-03T06:16:38.438Z,24.06
2023-02-03T06:17:08.423Z,24.04
2023-02-03T06:17:38.527Z,24.08
2023-02-03T06:18:08.605Z,24.04
2023-02-03T06:18:38.680Z,24.08
2023-02-03T06:19:08.760Z,24.04
2023-02-03T06:19:38.844Z,24.06
2023-02-03T06:20:08.939Z,24.08
2023-02-03T06:20:39.020Z,24.12
2023-02-03T06:21:09.120Z,24.12
2023-02-03T06:21:39.203Z,24.13
2023-02-03T06:22:09.326Z,24.13
2023-02-03T06:22:39.287Z,24.09
2023-02-03T06:23:09.381Z,24.09
2023-02-03T06:23:39.444Z,24.09
2023-02-03T06:24:09.533Z,24.09
2023-02-03T06:24:39.617Z,24.09
2023-02-03T06:25:11.905Z,24.09
2023-02-03T06:25:39.744Z,24.11
2023-02-03T06:26:09.796Z,24.09
2023-02-03T06:26:39.873Z,24.09
2023-02-03T06:27:09.960Z,24.06
2023-02-03T06:27:40.095Z,24.05